Time;durP1;ratioP1;P1;durP2;ratioP2;P2;SDS_P1;SDS_P2;PMS_P1;PMS_P2;Temp;Humidity;BMP_temperature;BMP_pressure;BME280_temperature;BME280_humidity;BME280_pressure;Samples;Min_cycle;Max_cycle;Signal;HPM_P1;HPM_P2
2023/08/16 00:01:10;;;;;;;21.20;17.80;;;;;;;24.72;75.15;99745.41;5040124;28;20334;-65
2023/08/16 00:03:36;;;;;;;21.33;17.40;;;;;;;24.79;75.37;99739.78;5038884;28;20061;-64
2023/08/16 00:06:14;;;;;;;22.02;16.15;;;;;;;24.82;75.01;99750.09;5040389;28;20037;-64
2023/08/16 00:08:40;;;;;;;21.92;17.75;;;;;;;24.80;75.22;99746.84;5038035;28;20068;-64
2023/08/16 00:11:06;;;;;;;22.65;18.95;;;;;;;24.81;75.34;99735.75;5039134;28;20104;-64
2023/08/16 00:13:32;;;;;;;16.63;14.15;;;;;;;24.86;75.24;99732.28;5038516;28;20311;-64
2023/08/16 00:15:58;;;;;;;15.50;11.38;;;;;;;24.86;74.59;99726.84;5038754;28;20034;-64
2023/08/16 00:18:23;;;;;;;14.68;11.30;;;;;;;24.83;74.20;99730.06;5039054;28;20041;-64
2023/08/16 00:20:49;;;;;;;13.88;10.80;;;;;;;24.83;74.59;99733.59;5038532;28;20033;-65
2023/08/16 00:23:14;;;;;;;16.27;11.32;;;;;;;24.85;74.81;99733.34;5040600;28;20086;-64
2023/08/16 00:25:40;;;;;;;12.90;11.48;;;;;;;24.91;74.39;99736.91;5039718;28;20334;-64
2023/08/16 00:28:05;;;;;;;15.20;10.93;;;;;;;24.91;74.16;99728.78;5040364;28;20728;-65
2023/08/16 00:30:31;;;;;;;14.95;10.65;;;;;;;24.92;74.21;99733.13;5038673;28;20079;-64
2023/08/16 00:32:56;;;;;;;14.20;10.88;;;;;;;24.77;75.23;99734.63;5040262;28;20314;-65
2023/08/16 00:35:21;;;;;;;12.65;10.38;;;;;;;24.88;74.68;99738.25;5038747;28;20365;-62
2023/08/16 00:37:47;;;;;;;13.07;11.13;;;;;;;24.88;74.92;99737.44;5039421;28;20261;-62
2023/08/16 00:40:14;;;;;;;12.88;9.80;;;;;;;24.91;74.71;99736.91;5037804;28;20059;-64
2023/08/16 00:42:40;;;;;;;13.75;10.70;;;;;;;24.94;74.43;99737.22;5037846;28;20599;-63
2023/08/16 00:45:06;;;;;;;12.15;10.40;;;;;;;24.96;74.43;99729.66;5037648;28;20419;-64
2023/08/16 00:47:32;;;;;;;12.75;10.50;;;;;;;24.93;74.60;99730.19;5038808;28;20103;-63
2023/08/16 00:49:57;;;;;;;12.60;10.25;;;;;;;24.87;74.69;99739.31;5038431;28;20040;-64
2023/08/16 00:52:23;;;;;;;13.07;10.30;;;;;;;24.77;75.41;99733.81;5037329;28;20049;-64
2023/08/16 00:54:49;;;;;;;13.30;10.65;;;;;;;24.77;75.28;99736.50;5038400;28;20037;-63
2023/08/16 00:57:14;;;;;;;14.75;11.13;;;;;;;24.25;77.87;99742.38;5037651;28;20041;-64
2023/08/16 00:59:39;;;;;;;13.38;11.60;;;;;;;24.18;79.08;99739.06;5038681;28;20274;-64
2023/08/16 01:02:05;;;;;;;12.50;10.55;;;;;;;24.43;77.98;99746.69;5037725;28;20223;-64
2023/08/16 01:04:31;;;;;;;14.00;11.07;;;;;;;24.31;78.56;99741.41;5039124;28;20037;-64
2023/08/16 01:07:00;;;;;;;17.73;12.10;;;;;;;24.35;78.53;99741.72;5038707;28;20234;-64
2023/08/16 01:09:26;;;;;;;14.25;11.57;;;;;;;24.33;79.17;99743.88;5038128;28;20045;-64
2023/08/16 01:11:54;;;;;;;13.38;11.18;;;;;;;24.27;79.46;99750.28;5037317;28;20052;-64
2023/08/16 01:14:26;;;;;;;12.35;10.57;;;;;;;24.24;79.54;99748.03;5038883;28;20351;-63
2023/08/16 01:16:53;;;;;;;10.73;9.18;;;;;;;24.37;78.88;99753.13;5037928;28;20041;-64
2023/08/16 01:19:28;;;;;;;12.63;10.48;;;;;;;24.35;78.83;99747.94;5038679;28;20352;-63
2023/08/16 01:22:32;;;;;;;11.98;10.43;;;;;;;24.13;80.02;99750.63;5038095;28;20087;-64
2023/08/16 01:25:11;;;;;;;12.65;10.05;;;;;;;24.15;79.92;99743.06;5015522;28;20045;-64
2023/08/16 01:27:36;;;;;;;11.60;10.35;;;;;;;24.19;79.70;99743.38;5038187;28;20053;-64
2023/08/16 01:30:04;;;;;;;11.77;9.80;;;;;;;24.26;79.47;99743.19;5039252;28;20215;-63
2023/08/16 01:32:31;;;;;;;12.02;9.48;;;;;;;24.29;79.08;99742.72;5037947;28;20100;-64
2023/08/16 01:34:57;;;;;;;17.80;9.88;;;;;;;24.33;79.03;99743.88;5038998;28;20037;-64
2023/08/16 01:37:23;;;;;;;10.88;9.60;;;;;;;24.39;78.53;99749.09;5037132;28;20277;-63
2023/08/16 01:39:50;;;;;;;12.10;9.63;;;;;;;24.35;78.86;99741.72;5039448;28;20037;-64
2023/08/16 01:42:17;;;;;;;11.48;10.13;;;;;;;24.26;79.10;99744.03;5036020;28;20084;-63
2023/08/16 01:44:44;;;;;;;12.75;9.90;;;;;;;24.35;79.14;99750.66;5038524;28;20068;-63
2023/08/16 01:47:12;;;;;;;13.13;10.35;;;;;;;24.28;79.35;99751.91;5036719;28;20053;-64
2023/08/16 01:49:41;;;;;;;12.27;10.48;;;;;;;24.04;80.86;99745.91;5038017;28;20052;-63
2023/08/16 01:52:07;;;;;;;11.70;10.45;;;;;;;23.82;82.30;99741.25;5037975;28;20102;-63
2023/08/16 01:54:32;;;;;;;11.38;10.15;;;;;;;23.95;82.18;99748.22;5037074;28;20064;-64
2023/08/16 01:56:58;;;;;;;12.45;10.00;;;;;;;24.00;81.95;99742.06;5037769;28;20103;-63
2023/08/16 01:59:23;;;;;;;12.70;10.48;;;;;;;24.00;82.02;99745.56;5036725;28;20401;-64
2023/08/16 02:01:49;;;;;;;10.85;9.73;;;;;;;24.15;81.00;99737.66;5037789;28;20042;-64
2023/08/16 02:04:14;;;;;;;11.73;10.48;;;;;;;24.35;80.38;99741.72;5036921;28;20041;-64
2023/08/16 02:06:40;;;;;;;11.20;10.10;;;;;;;24.42;79.57;99745.06;5038125;28;20102;-63
2023/08/16 02:09:05;;;;;;;11.93;10.05;;;;;;;24.44;79.39;99732.91;5036957;28;20033;-64
2023/08/16 02:11:31;;;;;;;13.15;11.13;;;;;;;24.43;79.53;99738.56;5037509;28;20269;-64
2023/08/16 02:13:57;;;;;;;11.88;10.68;;;;;;;24.39;79.68;99732.03;5037133;28;20051;-63
2023/08/16 02:16:23;;;;;;;12.93;11.45;;;;;;;24.51;79.33;99730.00;5037992;28;20352;-64
2023/08/16 02:18:51;;;;;;;14.00;10.40;;;;;;;24.52;79.13;99731.66;5036549;28;20033;-64
2023/08/16 02:21:16;;;;;;;12.75;10.35;;;;;;;24.57;79.04;99729.00;5036228;28;20047;-63
2023/08/16 02:23:42;;;;;;;11.13;10.00;;;;;;;24.61;78.94;99722.00;5037203;28;20026;-63
2023/08/16 02:26:07;;;;;;;13.80;9.48;;;;;;;24.63;78.83;99727.97;5036383;28;20299;-63
2023/08/16 02:28:32;;;;;;;13.23;10.38;;;;;;;24.70;78.40;99725.06;5037713;28;20052;-63
2023/08/16 02:31:06;;;;;;;11.00;9.93;;;;;;;24.69;78.51;99718.84;5035728;28;20124;-63
2023/08/16 02:33:34;;;;;;;11.57;10.43;;;;;;;24.65;79.20;99719.59;5018251;28;20026;-64
2023/08/16 02:36:00;;;;;;;15.70;10.63;;;;;;;24.63;79.05;99716.31;5021749;28;20025;-64
2023/08/16 02:38:25;;;;;;;15.10;10.88;;;;;;;24.53;79.90;99719.75;5035627;28;20335;-63
2023/08/16 02:40:51;;;;;;;14.27;11.05;;;;;;;24.47;80.60;99718.06;5037326;28;20025;-64
2023/08/16 02:43:16;;;;;;;13.52;10.20;;;;;;;24.46;80.74;99719.13;5036676;28;20346;-64
2023/08/16 02:45:42;;;;;;;12.05;10.63;;;;;;;24.45;80.90;99721.00;5037113;28;20311;-63
2023/08/16 02:48:08;;;;;;;13.35;9.88;;;;;;;24.46;80.62;99717.22;5036527;28;20056;-63
2023/08/16 02:50:33;;;;;;;14.45;10.43;;;;;;;24.46;80.41;99721.81;5036812;28;20039;-63
2023/08/16 02:52:59;;;;;;;12.07;9.98;;;;;;;24.44;80.85;99723.97;5036858;28;20360;-63
2023/08/16 02:55:24;;;;;;;11.77;10.57;;;;;;;24.35;81.14;99722.78;5036202;28;20041;-63
2023/08/16 02:57:50;;;;;;;11.07;9.82;;;;;;;24.30;81.48;99717.31;5035988;28;20053;-63
2023/08/16 03:00:15;;;;;;;13.57;10.82;;;;;;;24.30;81.56;99728.94;5037370;28;20319;-63
2023/08/16 03:02:41;;;;;;;14.55;9.95;;;;;;;24.31;81.54;99730.59;5037258;28;20045;-64
2023/08/16 03:05:06;;;;;;;12.98;10.35;;;;;;;24.30;81.32;99728.13;5036469;28;20051;-64
2023/08/16 03:07:32;;;;;;;11.95;9.88;;;;;;;24.38;80.86;99723.09;5037562;28;20068;-63
2023/08/16 03:09:58;;;;;;;12.85;10.02;;;;;;;24.40;80.67;99717.44;5036745;28;20052;-63
2023/08/16 03:12:24;;;;;;;13.07;10.20;;;;;;;24.43;80.88;99725.03;5036180;28;20029;-64
2023/08/16 03:14:49;;;;;;;10.82;9.73;;;;;;;24.46;80.54;99727.25;5036671;28;20064;-64
2023/08/16 03:17:15;;;;;;;11.43;9.98;;;;;;;24.48;80.40;99725.09;5036203;28;20147;-64
2023/08/16 03:19:40;;;;;;;14.05;10.85;;;;;;;24.34;80.89;99723.84;5037239;28;20093;-63
2023/08/16 03:22:06;;;;;;;11.98;10.52;;;;;;;24.43;80.78;99722.34;5036305;28;20049;-64
2023/08/16 03:24:32;;;;;;;13.93;10.15;;;;;;;24.43;80.79;99722.34;5037514;28;20037;-63
2023/08/16 03:26:57;;;;;;;12.85;10.85;;;;;;;24.45;80.96;99722.91;5037431;28;20381;-63
2023/08/16 03:29:23;;;;;;;15.88;10.40;;;;;;;24.29;81.82;99723.78;5036240;28;20042;-64
2023/08/16 03:31:48;;;;;;;17.58;11.70;;;;;;;24.31;81.59;99718.94;5037317;28;20037;-63
2023/08/16 03:34:14;;;;;;;14.63;11.00;;;;;;;24.26;82.05;99721.56;5035298;28;20047;-64
2023/08/16 03:36:39;;;;;;;16.70;13.27;;;;;;;24.09;82.97;99721.63;5037830;28;20034;-64
2023/08/16 03:39:05;;;;;;;14.57;11.60;;;;;;;24.05;83.40;99725.91;5035645;28;20029;-64
2023/08/16 03:41:32;;;;;;;17.15;10.98;;;;;;;24.16;82.92;99723.06;5036601;28;20033;-64
2023/08/16 03:43:58;;;;;;;15.43;11.07;;;;;;;24.18;82.84;99710.09;5035501;28;20056;-63
2023/08/16 03:46:23;;;;;;;13.38;10.23;;;;;;;24.15;83.02;99718.72;5036097;28;20108;-63
2023/08/16 03:48:49;;;;;;;14.50;11.27;;;;;;;24.21;82.70;99725.03;5035327;28;20033;-64
2023/08/16 03:51:14;;;;;;;11.90;9.98;;;;;;;24.20;82.41;99726.91;5037056;28;20084;-64
2023/08/16 03:53:40;;;;;;;12.13;10.10;;;;;;;24.24;82.08;99731.81;5036882;28;20041;-63
2023/08/16 03:56:05;;;;;;;12.68;10.02;;;;;;;24.29;81.74;99730.03;5036641;28;20035;-63
2023/08/16 03:58:31;;;;;;;12.93;11.00;;;;;;;24.25;82.26;99728.84;5036924;28;20049;-63
2023/08/16 04:00:56;;;;;;;15.90;11.00;;;;;;;24.32;81.86;99729.50;5035385;28;20064;-64
2023/08/16 04:03:21;;;;;;;14.55;10.38;;;;;;;24.14;82.98;99730.63;5036750;28;20341;-63
2023/08/16 04:05:47;;;;;;;13.45;11.50;;;;;;;24.28;82.69;99732.97;5034308;28;20041;-63
2023/08/16 04:08:12;;;;;;;11.52;9.88;;;;;;;24.19;82.45;99730.69;5036665;28;20057;-64
2023/08/16 04:10:38;;;;;;;16.33;11.27;;;;;;;24.23;82.42;99741.81;5035874;28;20097;-63
2023/08/16 04:13:04;;;;;;;19.23;11.43;;;;;;;24.31;82.14;99740.59;5038715;28;20033;-63
2023/08/16 04:15:30;;;;;;;16.38;10.77;;;;;;;24.01;84.32;99733.69;5040218;28;20282;-64
2023/08/16 04:17:55;;;;;;;16.55;11.10;;;;;;;24.12;84.35;99731.94;5040451;28;20135;-64
2023/08/16 04:20:22;;;;;;;18.05;11.15;;;;;;;24.13;84.20;99737.09;5038781;28;20041;-63
2023/08/16 04:22:48;;;;;;;22.80;12.35;;;;;;;24.23;84.01;99738.28;5039841;28;20043;-63
2023/08/16 04:25:13;;;;;;;21.25;12.90;;;;;;;24.25;84.04;99739.69;5038746;28;20235;-63
2023/08/16 04:27:38;;;;;;;20.15;13.27;;;;;;;24.26;84.50;99737.78;5040062;28;20045;-63
2023/08/16 04:30:08;;;;;;;16.25;12.45;;;;;;;24.31;84.38;99743.28;5039104;28;20331;-64
2023/08/16 04:32:33;;;;;;;17.38;11.73;;;;;;;24.39;83.96;99746.38;5041009;28;20215;-64
2023/08/16 04:34:58;;;;;;;21.13;12.30;;;;;;;24.24;84.82;99753.47;5040122;28;20112;-63
2023/08/16 04:37:24;;;;;;;22.58;12.25;;;;;;;24.21;85.39;99746.66;5039493;28;20531;-64
2023/08/16 04:39:49;;;;;;;25.70;13.02;;;;;;;24.10;86.17;99742.19;5040310;28;20078;-64
2023/08/16 04:42:15;;;;;;;19.10;12.60;;;;;;;24.26;86.05;99745.91;5036588;28;20037;-63
2023/08/16 04:44:41;;;;;;;20.02;12.10;;;;;;;24.19;85.58;99748.81;5038178;28;20053;-64
2023/08/16 04:47:07;;;;;;;16.52;12.00;;;;;;;24.33;85.11;99762.81;5038744;28;20053;-64
2023/08/16 04:49:32;;;;;;;23.42;18.88;;;;;;;24.44;84.61;99761.88;5038614;28;20037;-63
2023/08/16 04:51:58;;;;;;;25.13;22.55;;;;;;;24.46;84.39;99763.25;5038290;28;20052;-63
2023/08/16 04:54:23;;;;;;;22.05;18.60;;;;;;;24.45;84.47;99767.03;5038235;28;20033;-63
2023/08/16 04:56:49;;;;;;;16.50;12.40;;;;;;;24.41;85.09;99759.66;5038990;28;20045;-64
2023/08/16 04:59:16;;;;;;;15.93;11.23;;;;;;;24.43;84.80;99758.34;5037131;28;20041;-64
2023/08/16 05:01:42;;;;;;;16.73;12.00;;;;;;;24.33;86.03;99757.41;5039615;28;20041;-63
2023/08/16 05:04:08;;;;;;;20.05;12.02;;;;;;;24.28;86.23;99751.91;5037814;28;20268;-63
2023/08/16 05:06:34;;;;;;;23.98;12.15;;;;;;;24.35;85.87;99747.94;5039881;28;20044;-64
2023/08/16 05:09:00;;;;;;;21.25;11.52;;;;;;;24.54;85.39;99753.03;5038013;28;20219;-63
2023/08/16 05:11:25;;;;;;;20.83;12.73;;;;;;;24.39;85.81;99759.09;5037000;28;20030;-63
2023/08/16 05:13:51;;;;;;;17.98;11.25;;;;;;;24.42;86.10;99754.00;5037702;28;20357;-63
2023/08/16 05:16:16;;;;;;;18.85;11.80;;;;;;;24.44;85.91;99754.56;5038441;28;20276;-63
2023/08/16 05:18:42;;;;;;;19.67;12.07;;;;;;;24.56;85.57;99756.31;5037172;28;20030;-63
2023/08/16 05:21:07;;;;;;;17.30;11.43;;;;;;;24.56;86.18;99756.31;5038840;28;20308;-63
2023/08/16 05:23:34;;;;;;;20.42;12.57;;;;;;;24.68;85.34;99749.69;5037519;28;20262;-63
2023/08/16 05:26:00;;;;;;;25.20;12.15;;;;;;;24.78;85.07;99757.91;5039394;28;20342;-63
2023/08/16 05:28:25;;;;;;;18.50;11.25;;;;;;;24.84;85.15;99761.50;5037345;28;20072;-63
2023/08/16 05:30:51;;;;;;;16.40;12.48;;;;;;;24.89;85.02;99766.97;5039100;28;20401;-64
2023/08/16 05:33:16;;;;;;;17.45;13.05;;;;;;;24.97;84.33;99762.97;5037695;28;20038;-63
2023/08/16 05:35:42;;;;;;;15.10;11.60;;;;;;;25.02;84.15;99769.34;5038544;28;20386;-63
2023/08/16 05:38:08;;;;;;;20.05;12.65;;;;;;;25.14;84.47;99769.16;5037636;28;20038;-63
2023/08/16 05:40:33;;;;;;;16.83;11.02;;;;;;;25.00;84.29;99762.53;5038058;28;20033;-63
2023/08/16 05:42:58;;;;;;;19.77;14.48;;;;;;;25.06;84.26;99770.47;5038257;28;20049;-64
2023/08/16 05:45:27;;;;;;;15.30;10.80;;;;;;;25.04;84.05;99763.66;5037554;28;20071;-64
2023/08/16 05:47:55;;;;;;;13.65;10.48;;;;;;;25.04;84.32;99758.25;5038802;28;20342;-64
2023/08/16 05:50:21;;;;;;;23.08;13.25;;;;;;;25.14;84.20;99771.88;5037648;28;20589;-64
2023/08/16 05:52:46;;;;;;;20.63;15.00;;;;;;;25.30;83.78;99759.28;5039059;28;20440;-63
2023/08/16 05:55:12;;;;;;;13.15;10.20;;;;;;;25.36;82.98;99760.97;5036292;28;20029;-64
2023/08/16 05:57:37;;;;;;;12.48;9.93;;;;;;;25.36;82.91;99759.06;5037934;28;20053;-64
2023/08/16 06:00:03;;;;;;;13.13;10.13;;;;;;;25.42;83.12;99762.63;5038467;28;20093;-64
2023/08/16 06:02:29;;;;;;;11.93;10.05;;;;;;;25.57;82.41;99760.06;5038294;28;20071;-64
2023/08/16 06:04:54;;;;;;;10.98;9.82;;;;;;;25.47;81.07;99757.25;5034757;28;20358;-64
2023/08/16 06:07:21;;;;;;;15.52;10.25;;;;;;;25.55;81.59;99759.50;5033662;28;20365;-63
2023/08/16 06:09:46;;;;;;;13.32;10.20;;;;;;;25.60;81.70;99759.53;5034569;28;20037;-63
2023/08/16 06:12:12;;;;;;;12.15;9.82;;;;;;;25.72;80.90;99760.19;5032872;28;20037;-63
2023/08/16 06:14:38;;;;;;;13.32;9.68;;;;;;;25.70;81.16;99762.34;5033859;28;20660;-63
2023/08/16 06:17:03;;;;;;;16.45;10.70;;;;;;;25.79;81.66;99757.25;5032841;28;20395;-63
2023/08/16 06:19:29;;;;;;;15.02;10.80;;;;;;;25.92;80.53;99755.97;5034556;28;20071;-63
2023/08/16 06:21:54;;;;;;;19.25;10.50;;;;;;;26.02;81.19;99762.31;5032878;28;20043;-63
2023/08/16 06:24:20;;;;;;;12.40;10.32;;;;;;;26.12;81.00;99752.59;5033793;28;20037;-64
2023/08/16 06:26:45;;;;;;;15.82;11.18;;;;;;;26.12;79.74;99761.53;5033082;28;20057;-63
2023/08/16 06:29:11;;;;;;;15.57;10.82;;;;;;;26.21;81.25;99764.56;5034129;28;20049;-63
2023/08/16 06:31:36;;;;;;;12.85;10.73;;;;;;;26.33;81.33;99754.34;5033886;28;20033;-64
2023/08/16 06:34:02;;;;;;;19.10;10.77;;;;;;;26.35;80.35;99763.03;5033972;28;20358;-63
2023/08/16 06:36:28;;;;;;;14.48;10.98;;;;;;;26.47;80.97;99763.63;5033303;28;20079;-63
2023/08/16 06:38:53;;;;;;;14.73;10.18;;;;;;;26.54;79.23;99761.47;5033446;28;20048;-63
2023/08/16 06:41:19;;;;;;;18.40;11.57;;;;;;;26.59;79.01;99758.78;5033429;28;20052;-64
2023/08/16 06:43:45;;;;;;;17.17;11.55;;;;;;;26.66;78.32;99764.78;5033056;28;20434;-62
2023/08/16 06:46:10;;;;;;;16.70;10.95;;;;;;;26.73;78.56;99759.91;5034145;28;20342;-63
2023/08/16 06:48:35;;;;;;;15.15;11.32;;;;;;;26.73;77.55;99757.19;5032816;28;20204;-63
2023/08/16 06:51:01;;;;;;;13.65;10.77;;;;;;;26.76;77.64;99760.47;5033009;28;20041;-61
2023/08/16 06:53:27;;;;;;;15.25;10.73;;;;;;;26.84;77.51;99760.75;5033049;28;20071;-62
2023/08/16 06:55:54;;;;;;;17.02;11.57;;;;;;;26.86;76.35;99757.75;5033967;28;20030;-63
2023/08/16 06:58:20;;;;;;;15.38;10.55;;;;;;;26.96;76.89;99753.16;5033393;28;20033;-63
2023/08/16 07:00:46;;;;;;;13.80;10.50;;;;;;;26.83;77.35;99752.88;5032574;28;20223;-64
2023/08/16 07:03:12;;;;;;;13.50;10.07;;;;;;;26.96;77.18;99755.88;5033149;28;20025;-62
2023/08/16 07:05:37;;;;;;;13.57;10.43;;;;;;;26.93;76.91;99753.69;5032765;28;20037;-62
2023/08/16 07:08:03;;;;;;;12.48;11.18;;;;;;;26.91;76.20;99749.63;5034129;28;20272;-62
2023/08/16 07:10:29;;;;;;;15.43;11.00;;;;;;;27.05;76.56;99748.06;5032420;28;20042;-62
2023/08/16 07:12:54;;;;;;;12.65;9.95;;;;;;;27.12;75.43;99750.53;5033267;28;20087;-63
2023/08/16 07:15:19;;;;;;;13.35;10.75;;;;;;;27.08;75.31;99755.69;5032859;28;20029;-62
2023/08/16 07:17:45;;;;;;;12.40;10.85;;;;;;;27.08;73.70;99752.16;5033348;28;20038;-63
2023/08/16 07:20:10;;;;;;;15.02;10.43;;;;;;;26.96;74.67;99750.44;5032555;28;20374;-62
2023/08/16 07:22:38;;;;;;;12.30;10.13;;;;;;;27.08;75.41;99758.41;5033492;28;20037;-61
2023/08/16 07:25:05;;;;;;;14.00;9.65;;;;;;;27.14;75.16;99740.19;5032863;28;20029;-61
2023/08/16 07:27:31;;;;;;;11.45;9.73;;;;;;;27.17;74.16;99747.81;5033192;28;20041;-62
2023/08/16 07:29:56;;;;;;;13.30;9.70;;;;;;;27.28;74.53;99757.59;5032970;28;20334;-62
2023/08/16 07:32:22;;;;;;;13.05;9.18;;;;;;;27.35;73.76;99744.56;5033458;28;20335;-63
2023/08/16 07:34:47;;;;;;;14.75;9.73;;;;;;;27.39;72.12;99748.38;5033112;28;20097;-62
2023/08/16 07:37:13;;;;;;;12.75;9.75;;;;;;;27.43;72.15;99735.03;5033243;28;20333;-62
2023/08/16 07:39:39;;;;;;;13.07;9.60;;;;;;;27.45;73.32;99741.00;5014746;28;20029;-61
2023/08/16 07:42:06;;;;;;;11.68;9.45;;;;;;;27.44;73.07;99755.69;5031411;28;20033;-62
2023/08/16 07:44:32;;;;;;;18.27;9.30;;;;;;;27.48;72.34;99749.44;5032407;28;20053;-62
2023/08/16 07:46:58;;;;;;;13.60;9.20;;;;;;;27.32;71.18;99754.06;5036231;28;20082;-62
2023/08/16 07:49:23;;;;;;;12.85;9.40;;;;;;;27.40;71.56;99752.72;5036121;28;20041;-62
2023/08/16 07:51:49;;;;;;;10.07;8.45;;;;;;;27.40;71.83;99755.44;5036195;28;20083;-62
2023/08/16 07:54:14;;;;;;;12.30;9.82;;;;;;;27.43;71.05;99754.06;5036796;28;20414;-61
2023/08/16 07:56:40;;;;;;;15.30;9.55;;;;;;;27.43;70.94;99756.78;5035320;28;20034;-62
2023/08/16 07:59:05;;;;;;;12.05;9.23;;;;;;;27.44;70.88;99752.97;5036057;28;20035;-62
2023/08/16 08:01:31;;;;;;;12.15;9.68;;;;;;;27.47;70.16;99749.72;5035674;28;20026;-61
2023/08/16 08:03:57;;;;;;;14.45;10.48;;;;;;;27.47;70.09;99753.25;5037164;28;20082;-63
2023/08/16 08:06:22;;;;;;;16.40;10.95;;;;;;;27.57;70.08;99750.53;5039147;28;20038;-62
2023/08/16 08:08:48;;;;;;;12.35;9.10;;;;;;;27.64;68.81;99751.09;5038916;28;20250;-63
2023/08/16 08:11:14;;;;;;;14.13;10.35;;;;;;;27.77;68.72;99752.44;5038540;28;20083;-62
2023/08/16 08:13:39;;;;;;;14.85;9.88;;;;;;;27.79;70.03;99754.88;5039328;28;20033;-62
2023/08/16 08:16:06;;;;;;;10.02;8.60;;;;;;;27.78;68.14;99748.63;5039257;28;20041;-63
2023/08/16 08:18:32;;;;;;;11.77;8.88;;;;;;;27.87;68.12;99751.59;5038337;28;20127;-62
2023/08/16 08:20:59;;;;;;;14.38;10.38;;;;;;;27.95;67.75;99754.56;5039046;28;20033;-63
2023/08/16 08:23:25;;;;;;;15.15;9.90;;;;;;;28.05;67.72;99750.19;5038494;28;20029;-62
2023/08/16 08:25:51;;;;;;;17.63;10.80;;;;;;;28.14;67.52;99749.38;5038316;28;20331;-63
2023/08/16 08:28:17;;;;;;;14.98;10.18;;;;;;;28.23;67.21;99753.19;5039016;28;20044;-63
2023/08/16 08:30:43;;;;;;;15.35;9.80;;;;;;;28.28;67.99;99746.91;5039888;28;20026;-63
2023/08/16 08:33:08;;;;;;;14.30;9.48;;;;;;;28.38;66.77;99746.88;5039725;28;20033;-64
2023/08/16 08:35:33;;;;;;;12.63;9.07;;;;;;;28.20;64.63;99750.16;5039597;28;20096;-63
2023/08/16 08:37:59;;;;;;;11.27;9.13;;;;;;;28.35;64.90;99749.31;5039652;28;20041;-63
2023/08/16 08:40:25;;;;;;;12.85;9.63;;;;;;;28.42;64.01;99745.22;5039151;28;20033;-63
2023/08/16 08:42:51;;;;;;;15.75;9.02;;;;;;;28.48;65.37;99749.53;5038828;28;20056;-62
2023/08/16 08:45:17;;;;;;;13.15;8.02;;;;;;;28.53;61.36;99744.06;5039491;28;20033;-63
2023/08/16 08:47:47;;;;;;;11.63;7.78;;;;;;;28.56;60.84;99748.13;5039499;28;20041;-62
2023/08/16 08:50:12;;;;;;;10.60;7.75;;;;;;;28.55;59.18;99751.97;5038353;28;20345;-62
2023/08/16 08:52:38;;;;;;;9.95;7.13;;;;;;;28.39;60.23;99744.94;5039206;28;20281;-63
2023/08/16 08:55:04;;;;;;;12.82;7.93;;;;;;;28.35;62.20;99739.25;5039668;28;20033;-63
2023/08/16 08:57:30;;;;;;;11.30;8.00;;;;;;;28.04;63.56;99724.88;5037673;28;20045;-62
2023/08/16 09:00:00;;;;;;;10.93;8.65;;;;;;;28.14;63.72;99733.03;5038880;28;20029;-64
2023/08/16 09:02:30;;;;;;;10.95;7.63;;;;;;;28.26;62.94;99738.19;5038575;28;20124;-63
2023/08/16 09:04:59;;;;;;;8.55;7.75;;;;;;;28.46;62.01;99738.09;5039614;28;20037;-63
2023/08/16 09:07:26;;;;;;;9.10;6.93;;;;;;;28.52;58.77;99749.78;5039325;28;20258;-63
2023/08/16 09:09:52;;;;;;;8.25;7.15;;;;;;;28.56;57.39;99748.13;5038516;28;20049;-63
2023/08/16 09:12:19;;;;;;;8.18;7.38;;;;;;;28.70;56.00;99740.16;5038643;28;20082;-63
2023/08/16 09:14:45;;;;;;;9.02;6.95;;;;;;;28.86;57.36;99739.00;5039311;28;20021;-63
2023/08/16 09:17:10;;;;;;;9.40;6.88;;;;;;;29.14;56.37;99732.03;5038589;28;20049;-64
2023/08/16 09:19:46;;;;;;;8.27;6.60;;;;;;;29.35;53.71;99735.38;5037955;28;20059;-64
2023/08/16 09:22:12;;;;;;;7.68;6.22;;;;;;;29.39;54.17;99717.34;5039233;28;20266;-64
2023/08/16 09:24:40;;;;;;;10.25;7.38;;;;;;;29.22;54.74;99729.50;5039263;28;20033;-64
2023/08/16 09:27:06;;;;;;;9.77;6.90;;;;;;;29.31;53.63;99720.69;5039143;28;20042;-65
2023/08/16 09:29:31;;;;;;;9.30;6.85;;;;;;;29.47;54.10;99728.50;5038773;28;20047;-64
2023/08/16 09:31:57;;;;;;;9.18;6.68;;;;;;;29.16;53.54;99710.72;5039213;28;20037;-64
2023/08/16 09:34:24;;;;;;;9.05;6.82;;;;;;;29.30;54.17;99725.34;5038724;28;20029;-64
2023/08/16 09:36:49;;;;;;;11.88;7.90;;;;;;;29.50;55.46;99710.72;5039060;28;20037;-64
2023/08/16 09:39:15;;;;;;;10.48;7.35;;;;;;;29.77;55.38;99708.28;5038302;28;20045;-64
2023/08/16 09:41:49;;;;;;;14.70;7.03;;;;;;;29.80;54.17;99715.88;5038135;28;20037;-64
2023/08/16 09:44:15;;;;;;;10.65;7.30;;;;;;;29.78;53.21;99720.81;5038500;28;20076;-64
2023/08/16 09:46:41;;;;;;;10.02;7.10;;;;;;;29.74;53.07;99724.41;5038637;28;20044;-65
2023/08/16 09:49:08;;;;;;;7.68;6.85;;;;;;;29.51;53.55;99723.28;5038514;28;20079;-64
2023/08/16 09:51:41;;;;;;;8.63;7.05;;;;;;;29.50;53.85;99714.28;5038811;28;20048;-64
2023/08/16 09:54:14;;;;;;;9.73;7.20;;;;;;;29.44;52.33;99717.34;5038940;28;20071;-64
2023/08/16 09:56:43;;;;;;;9.23;7.63;;;;;;;29.52;53.20;99719.44;5037986;28;20041;-64
2023/08/16 09:59:13;;;;;;;9.63;7.25;;;;;;;29.47;53.82;99717.59;5038018;28;20045;-64
2023/08/16 10:01:39;;;;;;;9.63;7.28;;;;;;;29.42;54.62;99725.78;5038112;28;20075;-65
2023/08/16 10:04:07;;;;;;;8.45;6.97;;;;;;;29.30;53.91;99725.34;5038411;28;20040;-65
2023/08/16 10:06:34;;;;;;;9.70;7.32;;;;;;;29.47;55.92;99719.50;5038176;28;20083;-65
2023/08/16 10:09:04;;;;;;;9.32;7.13;;;;;;;29.63;55.60;99723.69;5037849;28;20025;-62
2023/08/16 10:11:32;;;;;;;8.68;7.78;;;;;;;29.73;53.45;99723.59;5037872;28;20100;-62
2023/08/16 10:13:58;;;;;;;10.35;8.20;;;;;;;29.73;53.62;99728.25;5037649;28;20057;-62
2023/08/16 10:16:27;;;;;;;9.63;6.93;;;;;;;29.50;53.04;99727.09;5037665;28;20041;-64
2023/08/16 10:18:55;;;;;;;9.95;7.75;;;;;;;29.36;54.51;99726.94;5037472;28;20040;-65
2023/08/16 10:21:22;;;;;;;9.35;7.70;;;;;;;29.41;53.17;99731.53;5037415;28;20361;-65
2023/08/16 10:23:47;;;;;;;9.75;7.95;;;;;;;29.30;54.86;99727.25;5037574;28;20059;-64
2023/08/16 10:26:15;;;;;;;8.70;7.22;;;;;;;29.33;53.93;99729.41;5037865;28;20122;-64
2023/08/16 10:28:51;;;;;;;10.57;7.88;;;;;;;29.35;53.53;99722.56;5037814;28;20038;-64
2023/08/16 10:31:21;;;;;;;10.68;7.85;;;;;;;29.38;54.29;99726.63;5037521;28;20037;-65
2023/08/16 10:33:50;;;;;;;11.30;7.65;;;;;;;29.54;53.86;99725.44;5037785;28;20047;-65
2023/08/16 10:36:16;;;;;;;10.50;7.97;;;;;;;29.69;53.53;99730.72;5038081;28;20125;-65
2023/08/16 10:38:42;;;;;;;9.25;7.68;;;;;;;29.79;52.86;99719.72;5037396;28;20413;-64
2023/08/16 10:41:15;;;;;;;7.97;6.80;;;;;;;29.94;52.57;99717.91;5037155;28;20036;-63
2023/08/16 10:43:49;;;;;;;8.77;7.65;;;;;;;30.01;52.48;99710.19;5037355;28;20034;-62
2023/08/16 10:46:31;;;;;;;7.88;7.10;;;;;;;29.94;50.90;99704.28;5037239;28;20112;-62
2023/08/16 10:48:59;;;;;;;9.02;7.78;;;;;;;30.13;50.80;99705.16;5038030;28;20104;-64
2023/08/16 10:51:25;;;;;;;10.38;7.70;;;;;;;30.21;51.24;99701.00;5036948;28;20365;-62
2023/08/16 10:53:50;;;;;;;9.98;7.40;;;;;;;30.30;51.42;99713.72;5037165;28;20037;-63
2023/08/16 10:56:19;;;;;;;10.02;7.25;;;;;;;30.34;50.56;99703.81;5037309;28;20045;-63
2023/08/16 10:58:51;;;;;;;8.95;6.70;;;;;;;30.38;50.71;99704.06;5037563;28;20048;-63
2023/08/16 11:01:18;;;;;;;8.10;6.63;;;;;;;30.32;49.88;99708.78;5037623;28;20041;-63
2023/08/16 11:03:44;;;;;;;8.93;7.38;;;;;;;29.96;51.51;99707.53;5036927;28;20037;-63
2023/08/16 11:06:11;;;;;;;10.50;6.93;;;;;;;30.06;50.89;99704.69;5037585;28;20072;-63
2023/08/16 11:08:47;;;;;;;7.80;6.80;;;;;;;29.94;50.89;99696.88;5037180;28;20033;-63
2023/08/16 11:11:13;;;;;;;9.60;7.43;;;;;;;30.03;51.79;99697.09;5036996;28;20038;-64
2023/08/16 11:13:42;;;;;;;8.73;7.53;;;;;;;30.18;51.85;99684.09;5037388;28;20071;-64
2023/08/16 11:16:11;;;;;;;8.95;7.32;;;;;;;30.34;51.64;99689.34;5037051;28;20327;-63
2023/08/16 11:18:41;;;;;;;7.78;6.95;;;;;;;30.11;50.98;99690.97;5037242;28;20214;-62